• Join FlightAware (Why Join?)
  • Login
  • US Flag 
08:38PM EDT


 

Airport Tracker/Info


-or-


 

Live Flight TrackerFlight Track Log ✈ XOJ538 ✈ 23-Jul-2013 ✈ KBUR - KGRB

Flight Track Log - Related Links

Times and Time Zones

All times are in EDT time to prevent confusion due to time zone crossing. See the XOJ538 flight status page for this flight to view local times or setup timezone preferences in your user account.

Time Position Orientation Groundspeed Altitude Reporting Facility
EDT Latitude Longitude Course Direction KTS MPH feet Rate Location/Type
06:17PM 34.1772 -118.3592 230° Southwest 162 186 2,200  Level Los Angeles Center
06:18PM 34.1506 -118.3978 230° Southwest 186 214 4,700 2,400 Climbing Los Angeles Center
06:19PM 34.1864 -118.4669 302° West 249 287 7,200 2,520 Climbing Los Angeles Center
06:20PM 34.2975 -118.4642 North 285 328 10,500 2,700 Climbing Los Angeles Center
06:21PM 34.4025 -118.4319 14° North 346 398 13,400 2,520 Climbing Los Angeles Center
06:22PM 34.4578 -118.3353 55° Northeast 352 405 15,800 2,160 Climbing Los Angeles Center
06:23PM 34.4925 -118.2161 71° East 371 427 17,900 2,100 Climbing Los Angeles Center
06:24PM 34.5328 -118.0806 70° East 390 449 20,200 2,100 Climbing Los Angeles Center
06:25PM 34.5708 -117.9550 70° East 398 458 22,300 1,740 Climbing Los Angeles Center
06:26PM 34.6089 -117.8247 70° East 411 473 23,900 1,500 Climbing Los Angeles Center
06:27PM 34.6469 -117.6906 71° East 422 486 25,400 1,740 Climbing Los Angeles Center
06:28PM 34.7006 -117.5267 68° East 438 504 27,600 1,800 Climbing Los Angeles Center
06:29PM 34.7447 -117.3903 68° East 439 505 29,200 1,320 Climbing Los Angeles Center
06:31PM 34.7903 -117.2511 68° East 445 512 30,400 1,020 Climbing Los Angeles Center
06:32PM 34.8367 -117.1067 69° East 457 526 31,400 840 Climbing Los Angeles Center
06:33PM 34.8919 -116.9622 65° Northeast 467 537 32,200 840 Climbing Los Angeles Center
06:34PM 34.9967 -116.8081 50° Northeast 492 566 33,200 1,080 Climbing Los Angeles Center
06:35PM 35.0850 -116.6775 50° Northeast 500 575 34,500 1,020 Climbing Los Angeles Center
06:36PM 35.1703 -116.5486 51° Northeast 494 568 35,600 1,080 Climbing Los Angeles Center
06:37PM 35.2736 -116.3953 50° Northeast 488 562 37,100 1,440 Climbing Los Angeles Center
06:38PM 35.3589 -116.2667 51° Northeast 488 562 38,600 1,320 Climbing Los Angeles Center
06:39PM 35.4553 -116.1156 52° Northeast 475 547 39,900 960 Climbing Los Angeles Center
06:40PM 35.5408 -115.9911 50° Northeast 477 549 40,800 720 Climbing Los Angeles Center
06:41PM 35.6417 -115.8336 52° Northeast 473 544 41,600 600 Climbing Los Angeles Center
06:42PM 35.7244 -115.7086 51° Northeast 473 544 42,100 480 Climbing Los Angeles Center
06:43PM 35.8064 -115.5822 51° Northeast 475 547 42,600 420 Climbing Los Angeles Center
06:44PM 35.8872 -115.4575 51° Northeast 470 541 43,000 180 Climbing Los Angeles Center
06:45PM 35.9853 -115.3061 51° Northeast 474 545 43,000  Level Los Angeles Center
06:46PM 36.0486 -115.2086 51° Northeast 463 533 43,000  Level Los Angeles Center
06:47PM 36.1164 -115.0342 64° Northeast 472 543 43,000  Level Los Angeles Center
06:49PM 36.1628 -114.8856 69° East 468 539 43,000  Level Los Angeles Center
06:50PM 36.2000 -114.7653 69° East 469 540 43,000  Level Los Angeles Center
06:51PM 36.2644 -114.5531 69° East 470 541 43,000  Level Los Angeles Center
06:52PM 36.3244 -114.4075 63° Northeast 474 545 43,000  Level Los Angeles Center
06:53PM 36.3844 -114.2639 63° Northeast 470 541 43,000  Level Los Angeles Center
06:54PM 36.4883 -114.1114 50° Northeast 479 551 43,000  Level Los Angeles Center
06:55PM 36.5550 -114.0108 50° Northeast 478 550 43,000  Level Los Angeles Center
06:56PM 36.6739 -113.8317 50° Northeast 480 552 43,000  Level Los Angeles Center
06:57PM 36.7531 -113.6961 54° Northeast 482 555 43,000  Level Los Angeles Center
06:58PM 36.8208 -113.5522 59° Northeast 482 555 43,000  Level Los Angeles Center
06:59PM 36.8817 -113.4033 63° Northeast 481 554 43,000  Level Los Angeles Center
07:00PM 36.9372 -113.2522 65° Northeast 481 554 43,000  Level Los Angeles Center
07:01PM 36.9925 -113.1019 65° Northeast 479 551 43,000  Level Los Angeles Center
07:02PM 37.0581 -112.9208 66° East 479 551 43,000  Level Los Angeles Center
07:03PM 37.1144 -112.7694 65° Northeast 482 555 43,000  Level Los Angeles Center
07:04PM 37.1683 -112.6189 66° East 480 552 43,000  Level Los Angeles Center
07:05PM 37.2228 -112.4675 66° East 480 552 43,000  Level Los Angeles Center
07:06PM 37.2894 -112.2831 66° East 487 560 43,000  Level Los Angeles Center
07:07PM 37.3436 -112.1306 66° East 484 557 43,000  Level Los Angeles Center
07:08PM 37.3994 -111.9756 66° East 488 562 43,000  Level Los Angeles Center
07:09PM 37.4542 -111.8203 66° East 488 562 43,000  Level Los Angeles Center
07:10PM 37.4956 -111.6953 67° East 490 564 43,000  Level Denver Center
07:11PM 37.5511 -111.5408 66° East 486 559 43,000  Level Denver Center
07:12PM 37.6050 -111.3853 66° East 486 559 43,000  Level Denver Center
07:13PM 37.6592 -111.2306 66° East 485 558 43,000  Level Denver Center
07:14PM 37.7125 -111.0761 66° East 482 555 43,000  Level Denver Center
07:15PM 37.7642 -110.9211 67° East 481 554 43,000  Level Denver Center
07:17PM 37.8278 -110.7369 66° East 479 551 43,000  Level Denver Center
07:18PM 37.8911 -110.5494 67° East 483 556 43,000 120 Level Denver Center
07:19PM 37.9456 -110.3881 67° East 479 551 43,300 360 Climbing Denver Center
07:20PM 37.9950 -110.2403 67° East 477 549 43,800 480 Climbing Denver Center
07:21PM 38.0503 -110.0736 67° East 471 542 44,300 480 Climbing Denver Center
07:22PM 38.0978 -109.9297 67° East 463 533 44,800 300 Climbing Denver Center
07:23PM 38.1525 -109.7642 67° East 458 527 45,000 60 Climbing Denver Center
07:24PM 38.1983 -109.6183 68° East 463 533 45,000  Level Denver Center
07:25PM 38.2619 -109.4242 67° East 466 536 45,000  Level Denver Center
07:26PM 38.3181 -109.2525 67° East 472 543 45,000  Level Denver Center
07:27PM 38.3661 -109.1033 68° East 475 547 45,000  Level Denver Center
07:28PM 38.4214 -108.9306 68° East 473 544 45,000  Level Denver Center
07:29PM 38.4689 -108.7797 68° East 478 550 45,000  Level Denver Center
07:30PM 38.5233 -108.6058 68° East 475 547 45,000  Level Denver Center
07:31PM 38.5697 -108.4578 68° East 473 544 45,000  Level Denver Center
07:32PM 38.6167 -108.3078 68° East 475 547 45,000  Level Denver Center
07:33PM 38.6711 -108.1331 68° East 475 547 45,000  Level Denver Center
07:34PM 38.7178 -107.9822 68° East 477 549 45,000  Level Denver Center
07:35PM 38.7719 -107.8064 68° East 477 549 45,000  Level Denver Center
07:36PM 38.8189 -107.6544 68° East 479 551 45,000  Level Denver Center
07:37PM 38.8711 -107.4781 69° East 475 547 45,000  Level Denver Center
07:38PM 38.9181 -107.3247 68° East 481 554 45,000  Level Denver Center
07:39PM 38.9717 -107.1472 69° East 479 551 45,000  Level Denver Center
07:41PM 39.0158 -106.9956 69° East 475 547 45,000  Level Denver Center
07:42PM 39.0683 -106.8167 69° East 478 550 45,000  Level Denver Center
07:43PM 39.1125 -106.6622 70° East 479 551 45,000  Level Denver Center
07:44PM 39.1664 -106.4822 69° East 482 555 45,000  Level Denver Center
07:45PM 39.2108 -106.3275 70° East 482 555 45,000  Level Denver Center
07:46PM 39.2644 -106.1456 69° East 486 559 45,000  Level Denver Center
07:47PM 39.3139 -105.9772 69° East 485 558 45,000  Level Denver Center
07:48PM 39.3589 -105.8142 70° East 485 558 45,000  Level Denver Center
07:49PM 39.4044 -105.6503 70° East 485 558 45,000  Level Denver Center
07:50PM 39.4547 -105.4847 68° East 487 560 45,000  Level Denver Center
07:51PM 39.4989 -105.3211 71° East 485 558 45,000  Level Denver Center
07:52PM 39.5442 -105.1564 70° East 479 551 45,000  Level Denver Center
07:53PM 39.5983 -104.9578 70° East 486 559 45,000  Level Denver Center
07:54PM 39.6411 -104.7947 71° East 509 586 45,000  Level Denver Center
07:55PM 39.6961 -104.6108 69° East 503 579 45,000  Level Denver Center
07:56PM 39.7325 -104.4361 75° East 498 573 45,000  Level Denver Center
07:57PM 39.7697 -104.2644 74° East 486 559 45,000  Level Denver Center
07:58PM 39.7994 -104.1258 74° East 494 568 45,000  Level Denver Center
07:59PM 39.8439 -103.9233 74° East 483 556 45,000  Level Denver Center
08:00PM 39.8817 -103.7506 74° East 492 566 45,000  Level Denver Center
08:01PM 39.9261 -103.5494 74° East 483 556 45,000  Level Denver Center
08:02PM 39.9622 -103.3800 74° East 487 560 45,000  Level Denver Center
08:03PM 39.9969 -103.2092 75° East 488 562 45,000  Level Denver Center
08:04PM 40.0342 -103.0392 74° East 489 563 45,000  Level Denver Center
08:05PM 40.0689 -102.8675 75° East 490 564 45,000  Level Denver Center
08:06PM 40.1106 -102.6728 74° East 490 564 45,000  Level Denver Center
08:07PM 40.1433 -102.5069 75° East 493 567 45,000  Level Denver Center
08:08PM 40.1817 -102.3147 75° East 490 564 45,000  Level Denver Center
08:09PM 40.2347 -102.1575 66° East 489 563 45,000  Level Denver Center
08:11PM 40.3050 -101.9800 63° Northeast 493 567 45,000  Level Denver Center
08:12PM 40.3642 -101.8269 63° Northeast 493 567 45,000  Level Denver Center
08:13PM 40.4331 -101.6467 63° Northeast 495 570 45,000  Level Denver Center
08:14PM 40.4922 -101.4925 63° Northeast 494 568 45,000  Level Denver Center
08:15PM 40.5600 -101.3117 64° Northeast 495 570 45,000  Level Denver Center
08:16PM 40.6175 -101.1567 64° Northeast 494 568 45,000  Level Denver Center
08:17PM 40.6844 -100.9758 64° Northeast 493 567 45,000  Level Denver Center
08:18PM 40.7458 -100.8147 63° Northeast 496 571 45,000  Level Denver Center
08:19PM 40.7969 -100.6672 65° Northeast 502 578 45,000  Level Denver Center
08:20PM 40.8561 -100.5142 63° Northeast 498 573 45,000  Level Denver Center
08:21PM 40.9328 -100.3072 64° Northeast 494 568 45,000  Level Denver Center
08:22PM 40.9894 -100.1508 64° Northeast 494 568 45,000  Level Denver Center
08:23PM 41.0561 -99.9683 64° Northeast 494 568 45,000  Level Denver Center
08:24PM 41.1122 -99.8122 64° Northeast 491 565 45,000  Level Denver Center
08:25PM 41.1861 -99.6044 65° Northeast 489 563 45,000  Level Denver Center
08:26PM 41.2408 -99.4503 65° Northeast 485 558 45,000  Level Denver Center
08:27PM 41.3075 -99.2603 65° Northeast 486 559 45,000  Level Denver Center
08:28PM 41.3656 -99.0956 65° Northeast 487 560 45,000  Level Denver Center
08:29PM 41.4233 -98.9308 65° Northeast 485 558 45,000  Level Denver Center
08:30PM 41.4603 -98.8197 66° East 485 558 45,000  Level Minneapolis Center
08:31PM 41.5275 -98.6250 65° Northeast 483 556 45,000  Level Minneapolis Center
08:32PM 41.5811 -98.4700 65° Northeast 484 557 45,000  Level Minneapolis Center
08:33PM 41.6372 -98.3067 65° Northeast 485 558 45,000  Level Minneapolis Center
08:34PM 41.6914 -98.1433 66° East 481 554 45,000  Level Minneapolis Center
08:35PM 41.7503 -97.9706 65° Northeast 485 558 45,000  Level Minneapolis Center
08:36PM 41.8061 -97.8039 66° East 488 562 45,000  Level Minneapolis Center
08:37PM 41.8717 -97.6053 66° East 486 559 45,000  Level Minneapolis Center
08:38PM 41.9264 -97.4383 66° East 487 560 45,000  Level Minneapolis Center
08:39PM 41.9814 -97.2706 66° East 488 562 45,000  Level Minneapolis Center
08:40PM 42.0361 -97.1033 66° East 489 563 45,000  Level Minneapolis Center
08:42PM 42.0903 -96.9344 67° East 489 563 45,000  Level Minneapolis Center
08:43PM 42.1450 -96.7644 66° East 494 568 45,000  Level Minneapolis Center
08:44PM 42.1994 -96.5942 67° East 493 567 45,000  Level Minneapolis Center
08:45PM 42.2636 -96.3897 67° East 492 566 45,000  Level Minneapolis Center
08:46PM 42.3172 -96.2200 67° East 491 565 45,000  Level Minneapolis Center
08:47PM 42.3606 -96.0825 67° East 492 566 45,000  Level Minneapolis Center
08:48PM 42.4236 -95.8750 68° East 493 567 45,000  Level Minneapolis Center
08:49PM 42.4767 -95.7053 67° East 490 564 45,000  Level Minneapolis Center
08:50PM 42.5286 -95.5333 68° East 492 566 45,000  Level Minneapolis Center
08:51PM 42.5806 -95.3633 67° East 488 562 45,000  Level Minneapolis Center
08:52PM 42.6428 -95.1611 67° East 485 558 45,000  Level Minneapolis Center
08:53PM 42.6939 -94.9919 68° East 484 557 45,000  Level Minneapolis Center
08:54PM 42.7436 -94.8244 68° East 487 560 45,000  Level Minneapolis Center
08:55PM 42.7931 -94.6569 68° East 483 556 45,000  Level Minneapolis Center
08:56PM 42.8456 -94.4808 68° East 494 568 45,000  Level Minneapolis Center
08:57PM 42.8939 -94.3097 69° East 493 567 45,000  Level Minneapolis Center
08:58PM 42.9528 -94.1033 69° East 490 564 45,000  Level Minneapolis Center
08:59PM 43.0039 -93.9303 68° East 493 567 45,000  Level Minneapolis Center
09:00PM 43.0517 -93.7589 69° East 490 564 45,000  Level Minneapolis Center
09:01PM 43.1117 -93.5514 68° East 492 566 45,000  Level Minneapolis Center
09:02PM 43.1597 -93.3781 69° East 491 565 45,000  Level Minneapolis Center
09:03PM 43.2078 -93.2053 69° East 490 564 45,000  Level Minneapolis Center
09:04PM 43.2583 -93.0328 68° East 491 565 45,000  Level Minneapolis Center
09:05PM 43.3056 -92.8586 70° East 490 564 45,000  Level Minneapolis Center
09:06PM 43.3619 -92.6494 70° East 490 564 45,000  Level Minneapolis Center
09:07PM 43.4106 -92.4758 69° East 489 563 45,000  Level Minneapolis Center
09:08PM 43.4581 -92.3006 69° East 491 565 45,000  Level Minneapolis Center
09:10PM 43.5061 -92.1253 69° East 492 566 45,000  Level Minneapolis Center
09:11PM 43.5531 -91.9458 70° East 498 573 45,000  Level Minneapolis Center
09:12PM 43.5989 -91.7706 70° East 490 564 45,000  Level Minneapolis Center
09:13PM 43.6550 -91.5603 70° East 490 564 45,000  Level Minneapolis Center
09:14PM 43.7008 -91.3847 70° East 488 562 45,000  Level Minneapolis Center
09:15PM 43.7478 -91.2083 70° East 490 564 45,000  Level Minneapolis Center
09:16PM 43.7928 -91.0300 71° East 493 567 45,000  Level Minneapolis Center
09:17PM 43.8386 -90.8497 71° East 497 572 45,000 -420 Level Minneapolis Center
09:18PM 43.8922 -90.6342 71° East 497 572 44,100 -1,560 Descending Minneapolis Center
09:19PM 43.9508 -90.3939 71° East 503 579 41,500 -2,220 Descending Minneapolis Center
09:20PM 43.9972 -90.2103 71° East 503 579 39,500 -2,280 Descending Minneapolis Center
09:21PM 44.0397 -90.0283 72° East 497 572 36,800 -2,760 Descending Minneapolis Center
09:22PM 44.0842 -89.8494 71° East 493 567 33,900 -2,520 Descending Minneapolis Center
09:23PM 44.1200 -89.6989 72° East 492 566 31,600 -2,760 Descending Minneapolis Center
09:24PM 44.2072 -89.5258 55° Northeast 471 542 28,300 -3,240 Descending Minneapolis Center
09:25PM 44.3039 -89.3650 50° Northeast 462 532 25,000 -3,000 Descending Minneapolis Center
09:26PM 44.3833 -89.2378 49° Northeast 446 513 22,200 -2,760 Descending Minneapolis Center
09:27PM 44.4606 -89.1139 49° Northeast 431 496 19,400 -2,760 Descending Minneapolis Center
09:28PM 44.5350 -88.9958 48° Northeast 406 467 16,500 -2,760 Descending Minneapolis Center
09:29PM 44.6022 -88.8900 48° Northeast 370 426 13,800 -2,220 Descending Minneapolis Center
09:30PM 44.6622 -88.7989 47° Northeast 327 376 12,000 -900 Descending Minneapolis Center
09:31PM 44.6842 -88.6758 76° East 314 361 12,000 -780 Level Minneapolis Center
09:33PM 44.6311 -88.5728 126° Southeast 324 373 10,400 -1,800 Descending Minneapolis Center
09:34PM 44.5794 -88.4769 127° Southeast 311 358 8,300 -1,380 Descending Minneapolis Center
09:35PM 44.5286 -88.4056 135° Southeast 263 303 7,400 -1,380 Descending Minneapolis Center
09:36PM 44.4572 -88.3219 140° Southeast 249 287 5,200 -1,200 Descending Minneapolis Center
09:37PM 44.4086 -88.2644 140° Southeast 236 272 5,000 -480 Descending Minneapolis Center
09:38PM 44.3803 -88.1992 121° Southeast 205 236 4,300 -1,260 Descending Minneapolis Center
09:39PM 44.3875 -88.1458 79° East 194 223 2,500 -1,140 Descending Minneapolis Center
09:40PM 44.4339 -88.1283 15° North 168 193 2,000 -540 Descending Minneapolis Center
09:42PM 44.4833 -88.1167 North  Level FlightAware Approximate